CU-0040 weather

San Carlos Airport
Camag├╝ey, Cuba

Public forecast

Using degrees Celsius for public forecast. Weather courtesy of forecast.io.

METAR (pilot weather report)

Closest report is Ignacio Agramonte International Airport, 26.7 nm (49.4 km) NE. Retrieved 2019/07/20 03:50 UTC (29 minutes ago):

MUCM 200350Z 03004KT 9000 FEW020 26/25 Q1018

TAF (pilot weather forecast)

Forecast is more than 12 hours old.

Closest forecast is Ignacio Agramonte International Airport, 26.7 nm (49.4 km) NE. Retrieved 2019/07/19 00:04 UTC (1 day ago):

TAF MUCM 192300Z 2000/2024 06008KT 9000 SCT020 TEMPO 2000/2001 4000 SHRA SCT018CB BKN020 BECMG 2002/2003 VRB03KT BECMG 2013/2015 06010KT BKN020 TEMPO 2019/2024 4000 TSRA SCT016CB BKN018